createdAt,value
2023-10-01T00:01:32.186Z,11.60
2023-10-01T00:06:25.985Z,11.70
2023-10-01T00:11:18.429Z,11.70
2023-10-01T00:16:10.720Z,11.80
2023-10-01T00:21:04.156Z,11.70
2023-10-01T00:25:57.175Z,11.80
2023-10-01T00:30:49.426Z,11.70
2023-10-01T00:35:42.824Z,11.60
2023-10-01T00:40:35.298Z,11.50
2023-10-01T00:45:27.508Z,11.40
2023-10-01T00:50:24.901Z,11.50
2023-10-01T00:55:22.594Z,11.60
2023-10-01T01:00:17.740Z,11.70
2023-10-01T01:06:05.664Z,11.70
2023-10-01T01:10:58.496Z,11.60
2023-10-01T01:15:53.584Z,11.50
2023-10-01T01:20:46.976Z,11.40
2023-10-01T01:25:40.066Z,11.20
2023-10-01T01:30:33.785Z,11.20
2023-10-01T01:35:31.997Z,11.20
2023-10-01T01:40:33.452Z,11.20
2023-10-01T01:45:28.571Z,11.10
2023-10-01T01:50:28.442Z,11.00
2023-10-01T01:55:24.830Z,11.00
2023-10-01T02:00:17.115Z,11.00
2023-10-01T02:05:10.996Z,10.90
2023-10-01T02:10:05.714Z,10.80
2023-10-01T02:14:59.289Z,10.80
2023-10-01T02:19:51.462Z,10.90
2023-10-01T02:24:55.703Z,10.90
2023-10-01T02:30:07.152Z,10.80
2023-10-01T02:35:00.491Z,10.80
2023-10-01T02:39:52.819Z,10.80
2023-10-01T02:44:48.534Z,10.80
2023-10-01T02:49:48.882Z,10.90
2023-10-01T02:54:41.866Z,11.00
2023-10-01T02:59:33.990Z,11.10
2023-10-01T03:04:29.022Z,11.10
2023-10-01T03:09:30.559Z,11.20
2023-10-01T03:14:27.292Z,11.40
2023-10-01T03:19:26.570Z,11.60
2023-10-01T03:24:18.950Z,11.50
2023-10-01T03:29:24.403Z,11.50
2023-10-01T03:34:30.087Z,11.50
2023-10-01T03:39:26.913Z,11.70
2023-10-01T03:44:39.005Z,11.80
2023-10-01T03:49:46.410Z,11.70
2023-10-01T03:54:53.701Z,11.80
2023-10-01T03:59:52.800Z,11.80
2023-10-01T04:05:00.695Z,11.80
2023-10-01T04:09:56.076Z,11.70
2023-10-01T04:14:54.226Z,11.70
2023-10-01T04:19:58.495Z,11.70
2023-10-01T04:25:02.326Z,11.80
2023-10-01T04:30:01.438Z,12.00
2023-10-01T04:34:54.045Z,12.10
2023-10-01T04:39:46.116Z,12.10
2023-10-01T04:44:38.254Z,12.10
2023-10-01T04:49:43.485Z,12.20
2023-10-01T04:54:38.572Z,12.10
2023-10-01T04:59:30.838Z,12.10
2023-10-01T05:04:22.963Z,12.20
2023-10-01T05:09:16.120Z,12.10
2023-10-01T05:14:08.308Z,12.20
2023-10-01T05:19:14.718Z,12.20
2023-10-01T05:24:09.025Z,12.30
2023-10-01T05:29:01.432Z,12.40
2023-10-01T05:33:54.247Z,12.50
2023-10-01T05:38:47.247Z,12.70
2023-10-01T05:43:39.829Z,12.70
2023-10-01T05:48:33.671Z,12.80
2023-10-01T05:53:26.110Z,12.90
2023-10-01T05:58:18.293Z,13.00
2023-10-01T06:03:10.422Z,13.30
2023-10-01T06:08:16.440Z,13.60
2023-10-01T06:13:08.833Z,13.70
2023-10-01T06:18:06.354Z,14.00
2023-10-01T06:23:00.924Z,14.40
2023-10-01T06:28:09.123Z,14.60
2023-10-01T06:33:01.645Z,14.70
2023-10-01T06:37:54.746Z,15.00
2023-10-01T06:42:48.858Z,15.20
2023-10-01T06:47:41.297Z,15.50
2023-10-01T06:52:36.511Z,15.90
2023-10-01T06:57:34.534Z,16.20
2023-10-01T07:02:30.257Z,16.80
2023-10-01T07:07:22.441Z,16.60
2023-10-01T07:12:14.586Z,16.90
2023-10-01T07:17:10.993Z,17.50
2023-10-01T07:22:07.830Z,17.50
2023-10-01T07:27:05.125Z,17.40
2023-10-01T07:31:57.578Z,18.10
2023-10-01T07:36:50.705Z,20.20
2023-10-01T07:41:45.701Z,22.20
2023-10-01T07:46:37.925Z,21.40
2023-10-01T07:51:37.128Z,21.30
2023-10-01T07:56:29.287Z,21.50
2023-10-01T08:01:43.910Z,21.60
2023-10-01T08:06:45.922Z,21.50
2023-10-01T08:11:56.473Z,21.10
2023-10-01T08:16:52.486Z,21.20
2023-10-01T08:21:49.849Z,21.30
2023-10-01T08:26:44.902Z,21.70
2023-10-01T08:31:49.549Z,22.20
2023-10-01T08:36:44.067Z,22.40
2023-10-01T08:42:09.716Z,23.20
2023-10-01T08:47:23.578Z,23.50
2023-10-01T08:52:20.592Z,23.70
2023-10-01T08:57:23.494Z,23.70
2023-10-01T09:02:17.651Z,24.30
2023-10-01T09:07:12.382Z,25.60
2023-10-01T09:12:19.465Z,25.90
2023-10-01T09:17:29.095Z,25.10
2023-10-01T09:22:34.101Z,24.60
2023-10-01T09:27:29.821Z,24.00
2023-10-01T09:32:55.838Z,23.90
2023-10-01T09:38:12.299Z,24.50
2023-10-01T09:43:05.951Z,27.40
2023-10-01T09:48:05.955Z,28.80
2023-10-01T09:53:01.645Z,28.90
2023-10-01T09:57:55.625Z,30.20
2023-10-01T10:02:52.909Z,33.40
2023-10-01T10:07:46.237Z,35.60
2023-10-01T10:12:38.520Z,35.90
2023-10-01T10:18:17.296Z,34.30
2023-10-01T10:23:30.758Z,33.60
2023-10-01T10:28:26.159Z,31.90
2023-10-01T10:33:19.111Z,30.50
2023-10-01T10:38:57.299Z,30.30
2023-10-01T10:44:09.510Z,29.90
2023-10-01T10:49:02.472Z,32.30
2023-10-01T10:54:01.503Z,32.10
2023-10-01T10:59:02.848Z,30.60
2023-10-01T11:03:58.268Z,29.30
2023-10-01T11:08:55.208Z,29.30
2023-10-01T11:13:47.396Z,32.90
2023-10-01T11:18:42.433Z,33.10
2023-10-01T11:23:34.683Z,31.90
2023-10-01T11:28:42.924Z,32.20
2023-10-01T11:33:35.576Z,32.50
2023-10-01T11:38:29.521Z,31.10
2023-10-01T11:43:28.725Z,29.30
2023-10-01T11:48:35.600Z,28.30
2023-10-01T11:53:30.379Z,28.10
2023-10-01T11:58:26.738Z,28.40
2023-10-01T12:03:20.169Z,28.30
2023-10-01T12:08:19.219Z,27.90
2023-10-01T12:13:13.019Z,27.40
2023-10-01T12:18:15.518Z,27.50
2023-10-01T12:23:15.279Z,27.30
2023-10-01T12:28:16.619Z,27.10
2023-10-01T12:33:08.957Z,27.00
2023-10-01T12:38:17.614Z,27.10
2023-10-01T12:43:28.624Z,27.00
2023-10-01T12:48:21.791Z,26.90
2023-10-01T12:53:21.182Z,26.80
2023-10-01T12:58:13.703Z,26.70
2023-10-01T13:03:11.410Z,26.50
2023-10-01T13:08:06.684Z,26.70
2023-10-01T13:12:58.852Z,26.50
2023-10-01T13:18:01.608Z,26.20
2023-10-01T13:23:01.009Z,26.00
2023-10-01T13:28:02.896Z,25.70
2023-10-01T13:33:15.960Z,25.40
2023-10-01T13:38:28.280Z,25.20
2023-10-01T13:43:39.198Z,25.10
2023-10-01T13:48:49.921Z,25.10
2023-10-01T13:54:00.535Z,25.10
2023-10-01T13:59:11.218Z,25.10
2023-10-01T14:04:24.307Z,25.10
2023-10-01T14:09:17.842Z,25.10
2023-10-01T14:14:20.727Z,25.00
2023-10-01T14:19:15.917Z,25.00
2023-10-01T14:24:24.606Z,24.80
2023-10-01T14:29:23.692Z,24.60
2023-10-01T14:34:18.471Z,24.50
2023-10-01T14:39:13.679Z,24.40
2023-10-01T14:44:08.939Z,24.30
2023-10-01T14:49:07.314Z,24.10
2023-10-01T14:54:00.552Z,23.90
2023-10-01T14:58:57.361Z,23.80
2023-10-01T15:03:55.616Z,23.60
2023-10-01T15:08:48.330Z,23.50
2023-10-01T15:13:47.391Z,23.40
2023-10-01T15:18:44.736Z,23.30
2023-10-01T15:23:46.848Z,23.30
2023-10-01T15:28:55.815Z,23.20
2023-10-01T15:34:06.492Z,23.20
2023-10-01T15:38:58.873Z,23.10
2023-10-01T15:43:52.145Z,23.00
2023-10-01T15:48:50.614Z,22.80
2023-10-01T15:53:47.578Z,22.70
2023-10-01T15:58:39.634Z,22.60
2023-10-01T16:03:32.899Z,22.50
2023-10-01T16:08:27.330Z,22.40
2023-10-01T16:13:29.327Z,22.20
2023-10-01T16:18:21.900Z,22.10
2023-10-01T16:23:16.701Z,22.00
2023-10-01T16:28:20.961Z,21.90
2023-10-01T16:33:17.569Z,21.80
2023-10-01T16:38:11.847Z,21.70
2023-10-01T16:43:16.113Z,21.60
2023-10-01T16:48:11.806Z,21.50
2023-10-01T16:53:03.990Z,21.40
2023-10-01T16:58:13.293Z,21.30
2023-10-01T17:03:12.401Z,21.20
2023-10-01T17:08:25.541Z,21.10
2023-10-01T17:13:19.717Z,21.10
2023-10-01T17:18:21.920Z,21.00
2023-10-01T17:23:14.385Z,20.90
2023-10-01T17:28:24.656Z,20.90
2023-10-01T17:33:20.015Z,20.80
2023-10-01T17:38:12.450Z,20.80
2023-10-01T17:43:07.857Z,20.80
2023-10-01T17:48:10.547Z,20.70
2023-10-01T17:53:04.193Z,20.70
2023-10-01T17:57:56.387Z,20.60
2023-10-01T18:02:48.489Z,20.50
2023-10-01T18:07:52.893Z,20.50
2023-10-01T18:12:46.641Z,20.40
2023-10-01T18:17:49.177Z,20.40
2023-10-01T18:22:51.061Z,20.40
2023-10-01T18:27:43.176Z,20.40
2023-10-01T18:32:36.196Z,20.30
2023-10-01T18:37:28.873Z,20.10
2023-10-01T18:42:23.467Z,19.80
2023-10-01T18:47:15.605Z,19.70
2023-10-01T18:52:07.821Z,19.60
2023-10-01T18:57:00.248Z,19.60
2023-10-01T19:01:58.053Z,19.50
2023-10-01T19:06:54.957Z,19.30
2023-10-01T19:11:47.782Z,19.10
2023-10-01T19:16:39.988Z,19.00
2023-10-01T19:21:36.417Z,18.90
2023-10-01T19:26:31.177Z,18.90
2023-10-01T19:31:29.759Z,18.90
2023-10-01T19:36:28.845Z,18.90
2023-10-01T19:41:22.054Z,18.90
2023-10-01T19:46:14.319Z,18.80
2023-10-01T19:51:07.495Z,18.70
2023-10-01T19:56:05.098Z,18.60
2023-10-01T20:00:58.606Z,18.50
2023-10-01T20:05:53.349Z,18.20
2023-10-01T20:10:46.386Z,18.10
2023-10-01T20:15:47.245Z,17.80
2023-10-01T20:20:41.457Z,17.70
2023-10-01T20:25:37.408Z,17.50
2023-10-01T20:30:33.939Z,17.30
2023-10-01T20:35:26.238Z,17.20
2023-10-01T20:40:19.742Z,17.20
2023-10-01T20:45:25.304Z,17.40
2023-10-01T20:50:38.234Z,17.30
2023-10-01T20:55:33.818Z,17.20
2023-10-01T21:00:39.009Z,17.00
2023-10-01T21:05:34.359Z,16.90
2023-10-01T21:10:26.843Z,16.80
2023-10-01T21:15:21.806Z,16.70
2023-10-01T21:20:15.524Z,16.50
2023-10-01T21:25:23.418Z,16.40
2023-10-01T21:30:17.437Z,16.30
2023-10-01T21:35:09.965Z,16.20
2023-10-01T21:40:02.312Z,16.10
2023-10-01T21:45:10.721Z,16.10
2023-10-01T21:50:12.149Z,16.00
2023-10-01T21:55:07.840Z,15.90
2023-10-01T22:00:00.473Z,15.80
2023-10-01T22:05:04.293Z,15.70
2023-10-01T22:10:06.468Z,15.70
2023-10-01T22:14:58.589Z,15.60
2023-10-01T22:19:51.358Z,15.60
2023-10-01T22:24:43.768Z,15.40
2023-10-01T22:29:38.027Z,15.40
2023-10-01T22:34:31.011Z,15.30
2023-10-01T22:39:36.941Z,15.20
2023-10-01T22:44:29.716Z,15.10
2023-10-01T22:49:22.989Z,15.00
2023-10-01T22:54:15.021Z,15.00
2023-10-01T22:59:07.307Z,14.90
2023-10-01T23:04:11.450Z,14.80
2023-10-01T23:09:03.651Z,14.80
2023-10-01T23:13:56.035Z,14.60
2023-10-01T23:18:50.778Z,14.60
2023-10-01T23:23:44.335Z,14.50
2023-10-01T23:28:42.323Z,14.40
2023-10-01T23:33:35.245Z,14.30
2023-10-01T23:38:37.823Z,14.20
2023-10-01T23:43:48.931Z,14.20
2023-10-01T23:48:52.259Z,14.20
2023-10-01T23:53:53.986Z,14.20
2023-10-01T23:58:47.916Z,14.10
